Oroville, California
Current Conditions -  °F | °C
As of 12:53 PM on Saturday 20 Dec 2014 (Local Time) from KOVE Reporting Station
Light Rain Light Rain  
Wind Chill: 55°   Ceiling: 1200
Heat Index: 55°   Visibility: 10mi
Dew Point: 51°   Wind: 10mph
Humidity: 86%   Direction: 140°SE
Pressure: 30.21"   Gusts: NA
Location:  39.51°N, 121.55°W
Report Text: KOVE 202053Z AUTO 14009KT 10SM -RA OVC012 13/11 A3021 RMK AO2 RAB23 SLP231 P0001 60001 T01280106 56005
Loading
Personal Weather Stations






























Interactive Weather Map New forecast layout! Learn more

10-Day Weather Forecast

Advertisements
Track Severe Weather on mobile